Time;durP1;ratioP1;P1;durP2;ratioP2;P2;SDS_P1;SDS_P2;PMS_P1;PMS_P2;Temp;Humidity;BMP_temperature;BMP_pressure;BME280_temperature;BME280_humidity;BME280_pressure;Samples;Min_cycle;Max_cycle;Signal;HPM_P1;HPM_P2
2023/03/13 00:04:51;;;;;;;9.10;5.65;;;;;;;;;;10373360;28;20029;-69
2023/03/13 00:09:51;;;;;;;10.90;6.23;;;;;;;;;;10372357;28;20034;-69
2023/03/13 00:14:52;;;;;;;9.35;6.97;;;;;;;;;;10379024;28;20033;-71
2023/03/13 00:19:52;;;;;;;10.93;6.95;;;;;;;;;;10378596;28;20171;-71
2023/03/13 00:24:52;;;;;;;10.97;7.00;;;;;;;;;;10379156;28;20033;-71
2023/03/13 00:29:52;;;;;;;14.68;6.90;;;;;;;;;;10380483;28;20766;-71
2023/03/13 00:34:53;;;;;;;12.00;6.07;;;;;;;;;;10379084;28;20033;-70
2023/03/13 00:39:53;;;;;;;10.17;6.43;;;;;;;;;;10376394;28;20044;-71
2023/03/13 00:44:53;;;;;;;8.07;6.20;;;;;;;;;;10379035;28;20067;-69
2023/03/13 00:49:54;;;;;;;9.40;6.05;;;;;;;;;;10377079;28;20495;-70
2023/03/13 00:54:54;;;;;;;10.60;6.20;;;;;;;;;;10394023;28;20691;-70
2023/03/13 00:59:54;;;;;;;10.82;6.85;;;;;;;;;;10377670;28;20513;-70
2023/03/13 01:04:55;;;;;;;9.03;6.47;;;;;;;;;;10378576;28;20037;-69
2023/03/13 01:09:55;;;;;;;9.93;6.33;;;;;;;;;;10377870;28;20542;-69
2023/03/13 01:14:55;;;;;;;10.38;6.68;;;;;;;;;;10378043;28;20288;-69
2023/03/13 01:19:56;;;;;;;10.47;6.63;;;;;;;;;;10375974;28;20038;-69
2023/03/13 01:24:56;;;;;;;10.10;6.78;;;;;;;;;;10376610;28;20760;-69
2023/03/13 01:29:56;;;;;;;13.15;7.93;;;;;;;;;;10377468;28;20042;-69
2023/03/13 01:34:57;;;;;;;12.63;7.50;;;;;;;;;;10377000;28;20037;-70
2023/03/13 01:39:57;;;;;;;9.55;6.82;;;;;;;;;;10374162;28;20204;-71
2023/03/13 01:44:57;;;;;;;11.45;7.00;;;;;;;;;;10376037;28;20063;-71
2023/03/13 01:49:58;;;;;;;9.00;6.43;;;;;;;;;;10375802;28;20505;-70
2023/03/13 01:55:01;;;;;;;9.57;6.30;;;;;;;;;;10376486;28;20460;-70
2023/03/13 02:00:02;;;;;;;12.07;6.88;;;;;;;;;;10376480;28;20069;-70
2023/03/13 02:05:04;;;;;;;11.75;7.75;;;;;;;;;;10376499;28;21257;-71
2023/03/13 02:10:06;;;;;;;11.68;6.90;;;;;;;;;;10376484;28;20045;-71
2023/03/13 02:15:13;;;;;;;16.02;6.93;;;;;;;;;;10375656;28;20446;-71
2023/03/13 02:20:16;;;;;;;15.70;6.78;;;;;;;;;;10389515;28;20033;-71
2023/03/13 02:25:22;;;;;;;15.35;8.07;;;;;;;;;;10372219;28;20044;-70
2023/03/13 02:30:23;;;;;;;14.82;8.43;;;;;;;;;;10357089;28;20037;-70
2023/03/13 02:35:23;;;;;;;14.35;8.68;;;;;;;;;;10375044;28;20401;-70
2023/03/13 02:40:27;;;;;;;12.35;7.90;;;;;;;;;;10389614;28;20037;-70
2023/03/13 02:45:27;;;;;;;12.35;8.40;;;;;;;;;;10374574;28;20037;-70
2023/03/13 02:50:27;;;;;;;15.67;8.07;;;;;;;;;;10374265;28;20034;-69
2023/03/13 02:55:38;;;;;;;9.98;7.10;;;;;;;;;;10389352;28;20759;-70
2023/03/13 03:00:38;;;;;;;13.43;7.70;;;;;;;;;;10373702;28;20034;-70
2023/03/13 03:05:38;;;;;;;10.23;6.82;;;;;;;;;;10374681;28;20048;-70
2023/03/13 03:10:38;;;;;;;15.27;8.10;;;;;;;;;;10374316;28;20081;-70
2023/03/13 03:15:39;;;;;;;14.98;7.68;;;;;;;;;;10373404;28;20048;-70
2023/03/13 03:20:39;;;;;;;13.27;8.43;;;;;;;;;;10374031;28;20060;-69
2023/03/13 03:25:39;;;;;;;16.25;9.25;;;;;;;;;;10374034;28;20040;-69
2023/03/13 03:30:40;;;;;;;11.00;8.35;;;;;;;;;;10373131;28;20037;-69
2023/03/13 03:35:40;;;;;;;12.10;8.07;;;;;;;;;;10373109;28;20032;-70
2023/03/13 03:40:40;;;;;;;12.07;7.10;;;;;;;;;;10373225;28;20039;-70
2023/03/13 03:45:40;;;;;;;11.48;8.23;;;;;;;;;;10373584;28;20737;-71
2023/03/13 03:50:41;;;;;;;15.63;8.30;;;;;;;;;;10379816;28;20770;-71
2023/03/13 03:55:41;;;;;;;11.15;7.28;;;;;;;;;;10380593;28;20035;-70
2023/03/13 04:00:42;;;;;;;11.65;8.70;;;;;;;;;;10380443;28;20828;-70
2023/03/13 04:05:43;;;;;;;15.77;8.77;;;;;;;;;;10380170;28;20528;-70
2023/03/13 04:10:43;;;;;;;19.17;10.67;;;;;;;;;;10380506;28;20052;-70
2023/03/13 04:15:43;;;;;;;21.27;10.38;;;;;;;;;;10379515;28;20292;-70
2023/03/13 04:20:44;;;;;;;15.87;10.03;;;;;;;;;;10379644;28;20060;-70
2023/03/13 04:25:44;;;;;;;14.60;7.43;;;;;;;;;;10380184;28;20037;-70
2023/03/13 04:30:44;;;;;;;16.63;10.07;;;;;;;;;;10379249;28;20081;-70
2023/03/13 04:35:45;;;;;;;16.95;9.00;;;;;;;;;;10378880;28;20038;-70
2023/03/13 04:40:45;;;;;;;20.58;11.55;;;;;;;;;;10377854;28;20026;-70
2023/03/13 04:45:46;;;;;;;19.50;12.27;;;;;;;;;;10379119;28;20077;-70
2023/03/13 04:50:47;;;;;;;23.00;14.53;;;;;;;;;;10376815;28;20076;-70
2023/03/13 04:55:48;;;;;;;25.35;16.23;;;;;;;;;;10393519;28;20493;-69
2023/03/13 05:00:49;;;;;;;27.40;15.48;;;;;;;;;;10375020;28;20411;-73
2023/03/13 05:05:49;;;;;;;22.02;12.80;;;;;;;;;;10376406;28;20029;-69
2023/03/13 05:10:49;;;;;;;24.00;13.00;;;;;;;;;;10379195;28;20036;-71
2023/03/13 05:15:49;;;;;;;22.48;13.10;;;;;;;;;;10384389;28;20033;-69
2023/03/13 05:20:50;;;;;;;21.05;13.35;;;;;;;;;;10373004;28;20784;-70
2023/03/13 05:25:50;;;;;;;18.65;12.27;;;;;;;;;;10382576;28;20064;-70
2023/03/13 05:30:50;;;;;;;32.38;11.88;;;;;;;;;;10387977;28;20037;-70
2023/03/13 05:35:51;;;;;;;22.90;11.95;;;;;;;;;;10396535;28;20526;-69
2023/03/13 05:40:51;;;;;;;19.10;11.67;;;;;;;;;;10379174;28;20095;-69
2023/03/13 05:45:51;;;;;;;16.13;9.87;;;;;;;;;;10383179;28;20120;-71
2023/03/13 05:50:51;;;;;;;19.00;9.70;;;;;;;;;;10371363;28;20032;-70
2023/03/13 05:55:52;;;;;;;18.50;9.13;;;;;;;;;;10382594;28;20026;-71
2023/03/13 06:00:52;;;;;;;18.65;9.68;;;;;;;;;;10371567;28;20531;-70
2023/03/13 06:05:56;;;;;;;21.17;10.90;;;;;;;;;;10348589;28;20384;-69
2023/03/13 06:11:00;;;;;;;20.33;10.95;;;;;;;;;;10361106;28;20025;-69
2023/03/13 06:16:00;;;;;;;15.45;9.25;;;;;;;;;;10379065;28;20034;-69
2023/03/13 06:21:01;;;;;;;15.43;9.18;;;;;;;;;;10360072;28;20029;-69
2023/03/13 06:26:05;;;;;;;17.92;9.93;;;;;;;;;;10380760;28;20044;-71
2023/03/13 06:31:06;;;;;;;17.23;9.93;;;;;;;;;;10379300;28;20030;-71
2023/03/13 06:36:06;;;;;;;15.02;8.27;;;;;;;;;;10381828;28;20041;-70
2023/03/13 06:41:06;;;;;;;16.33;9.43;;;;;;;;;;10381142;28;20381;-70
2023/03/13 06:46:07;;;;;;;23.27;9.40;;;;;;;;;;10381410;28;20034;-69
2023/03/13 06:51:11;;;;;;;17.83;9.50;;;;;;;;;;10355439;28;20095;-69
2023/03/13 06:56:12;;;;;;;10.05;7.35;;;;;;;;;;10375236;28;20033;-69
2023/03/13 07:01:13;;;;;;;16.48;9.65;;;;;;;;;;10380590;28;20496;-71
2023/03/13 07:06:13;;;;;;;16.02;9.00;;;;;;;;;;10381261;28;20447;-69
2023/03/13 07:11:14;;;;;;;19.02;9.57;;;;;;;;;;10380147;28;20095;-70
2023/03/13 07:16:15;;;;;;;15.25;8.82;;;;;;;;;;10380522;28;20059;-70
2023/03/13 07:21:15;;;;;;;17.38;8.93;;;;;;;;;;10380320;28;20533;-70
2023/03/13 07:26:15;;;;;;;26.02;14.45;;;;;;;;;;10380236;28;20052;-70
2023/03/13 07:31:17;;;;;;;24.90;13.83;;;;;;;;;;10379979;28;20370;-70
2023/03/13 07:36:17;;;;;;;28.55;14.43;;;;;;;;;;10379986;28;20139;-69
2023/03/13 07:41:18;;;;;;;27.50;13.68;;;;;;;;;;10379063;28;20184;-69
2023/03/13 07:46:19;;;;;;;20.00;13.32;;;;;;;;;;10379738;28;20034;-70
2023/03/13 07:51:20;;;;;;;28.60;13.73;;;;;;;;;;10379750;28;20038;-71
2023/03/13 07:56:21;;;;;;;26.33;13.20;;;;;;;;;;10378943;28;20268;-71
2023/03/13 08:01:23;;;;;;;27.85;13.40;;;;;;;;;;10380009;28;20032;-70
2023/03/13 08:06:24;;;;;;;21.42;11.90;;;;;;;;;;10378783;28;20037;-70
2023/03/13 08:11:25;;;;;;;32.63;14.10;;;;;;;;;;10378561;28;20037;-70
2023/03/13 08:16:27;;;;;;;23.55;14.38;;;;;;;;;;10377758;28;20049;-71
2023/03/13 08:21:29;;;;;;;21.42;12.93;;;;;;;;;;10377138;28;20025;-70
2023/03/13 08:26:29;;;;;;;19.08;12.63;;;;;;;;;;10378246;28;20400;-70
2023/03/13 08:31:31;;;;;;;28.65;13.55;;;;;;;;;;10378468;28;20069;-70
2023/03/13 08:36:36;;;;;;;18.30;12.35;;;;;;;;;;10385870;28;20025;-69
2023/03/13 08:41:36;;;;;;;24.98;11.38;;;;;;;;;;10385990;28;20579;-69
2023/03/13 08:46:36;;;;;;;20.10;12.00;;;;;;;;;;10386247;28;20112;-69
2023/03/13 08:51:38;;;;;;;25.50;12.48;;;;;;;;;;10385329;28;20100;-69
2023/03/13 08:56:39;;;;;;;22.15;12.50;;;;;;;;;;10385614;28;20176;-69
2023/03/13 09:01:40;;;;;;;30.60;12.85;;;;;;;;;;10391506;28;20116;-70
2023/03/13 09:06:40;;;;;;;28.33;13.75;;;;;;;;;;10384527;28;20528;-70
2023/03/13 09:11:40;;;;;;;21.02;13.10;;;;;;;;;;10384563;28;20034;-70
2023/03/13 09:16:41;;;;;;;22.77;12.60;;;;;;;;;;10384256;28;20037;-70
2023/03/13 09:21:41;;;;;;;30.30;13.70;;;;;;;;;;10384497;28;20799;-70
2023/03/13 09:26:42;;;;;;;27.00;13.07;;;;;;;;;;10372039;28;20076;-70
2023/03/13 09:31:42;;;;;;;23.87;13.60;;;;;;;;;;10375992;28;20128;-70
2023/03/13 09:36:42;;;;;;;21.40;13.87;;;;;;;;;;10383908;28;20794;-70
2023/03/13 09:41:56;;;;;;;25.77;12.82;;;;;;;;;;10383856;28;20041;-70
2023/03/13 09:47:19;;;;;;;26.42;12.88;;;;;;;;;;10382792;28;20729;-70
2023/03/13 09:52:24;;;;;;;25.70;13.15;;;;;;;;;;10383597;28;20033;-69
2023/03/13 09:57:37;;;;;;;22.50;11.48;;;;;;;;;;10383559;28;20080;-69
2023/03/13 10:02:38;;;;;;;19.20;11.98;;;;;;;;;;10383128;28;20088;-69
2023/03/13 10:07:38;;;;;;;23.30;11.80;;;;;;;;;;10382631;28;20026;-69
2023/03/13 10:12:42;;;;;;;21.87;11.37;;;;;;;;;;10382441;28;20504;-70
2023/03/13 10:17:43;;;;;;;22.23;12.65;;;;;;;;;;10382186;28;20033;-71
2023/03/13 10:22:45;;;;;;;17.35;10.95;;;;;;;;;;10382222;28;20356;-70
2023/03/13 10:27:49;;;;;;;17.48;10.63;;;;;;;;;;10381900;28;20091;-69
2023/03/13 10:32:49;;;;;;;16.52;9.68;;;;;;;;;;10381796;28;20064;-69
2023/03/13 10:37:58;;;;;;;18.27;10.43;;;;;;;;;;10396610;28;20040;-70
2023/03/13 10:43:00;;;;;;;14.73;8.77;;;;;;;;;;10380945;28;20272;-69
2023/03/13 10:48:11;;;;;;;17.42;8.18;;;;;;;;;;10380185;28;20048;-69
2023/03/13 10:53:19;;;;;;;17.30;8.95;;;;;;;;;;10339284;28;20136;-69
2023/03/13 10:58:26;;;;;;;16.13;8.60;;;;;;;;;;10373533;28;20025;-69
2023/03/13 11:03:32;;;;;;;12.25;8.48;;;;;;;;;;10379949;28;20040;-69
2023/03/13 11:08:36;;;;;;;15.63;8.85;;;;;;;;;;10380206;28;20030;-69
2023/03/13 11:13:41;;;;;;;15.20;8.65;;;;;;;;;;10380075;28;20037;-70
2023/03/13 11:19:00;;;;;;;14.07;7.40;;;;;;;;;;10379659;28;20029;-70
2023/03/13 11:24:06;;;;;;;15.77;8.85;;;;;;;;;;10379897;28;20029;-70
2023/03/13 11:29:24;;;;;;;13.45;8.10;;;;;;;;;;10378866;28;20148;-70
2023/03/13 11:34:50;;;;;;;12.48;8.43;;;;;;;;;;10378843;28;20025;-70
2023/03/13 11:39:57;;;;;;;17.33;10.02;;;;;;;;;;10351832;28;20172;-69
2023/03/13 11:45:16;;;;;;;15.10;8.95;;;;;;;;;;10344742;28;20634;-69
2023/03/13 11:50:33;;;;;;;22.05;9.63;;;;;;;;;;10379584;28;20316;-69
2023/03/13 11:55:41;;;;;;;16.05;10.95;;;;;;;;;;10379137;28;20078;-69
2023/03/13 12:00:41;;;;;;;22.17;9.68;;;;;;;;;;10378372;28;20083;-69
2023/03/13 12:05:50;;;;;;;17.77;10.43;;;;;;;;;;10394192;28;20079;-70
2023/03/13 12:11:12;;;;;;;34.63;11.38;;;;;;;;;;10385120;28;20024;-69
2023/03/13 12:16:15;;;;;;;16.05;10.93;;;;;;;;;;10386687;28;20045;-69
2023/03/13 12:21:19;;;;;;;13.90;9.43;;;;;;;;;;10401226;28;20037;-70
2023/03/13 12:26:20;;;;;;;18.48;9.82;;;;;;;;;;10386494;28;20467;-69
2023/03/13 12:31:35;;;;;;;15.40;9.30;;;;;;;;;;10385974;28;20715;-70
2023/03/13 12:36:40;;;;;;;24.15;11.02;;;;;;;;;;10385772;28;20029;-70
2023/03/13 12:41:47;;;;;;;25.15;10.73;;;;;;;;;;10400906;28;20038;-69
2023/03/13 12:47:10;;;;;;;18.35;10.43;;;;;;;;;;10385576;28;20034;-69
2023/03/13 12:52:14;;;;;;;18.48;10.45;;;;;;;;;;10377499;28;20356;-70
2023/03/13 12:57:29;;;;;;;18.40;10.02;;;;;;;;;;10385689;28;20029;-70
2023/03/13 13:02:30;;;;;;;15.45;10.27;;;;;;;;;;10385798;28;20388;-66
2023/03/13 13:07:34;;;;;;;20.85;11.18;;;;;;;;;;10382666;28;20050;-68
2023/03/13 13:12:35;;;;;;;19.70;10.73;;;;;;;;;;10373738;28;20025;-67
2023/03/13 13:17:39;;;;;;;19.58;9.82;;;;;;;;;;10375307;28;20359;-67
2023/03/13 13:22:39;;;;;;;17.70;10.95;;;;;;;;;;10368877;28;20481;-68
2023/03/13 13:27:39;;;;;;;21.07;10.67;;;;;;;;;;10373406;28;20459;-70
2023/03/13 13:32:41;;;;;;;22.90;10.75;;;;;;;;;;10389506;28;20056;-68
2023/03/13 13:37:41;;;;;;;19.98;12.05;;;;;;;;;;10373707;28;20095;-70
2023/03/13 13:42:49;;;;;;;20.75;12.10;;;;;;;;;;10367299;28;20462;-72
2023/03/13 13:47:50;;;;;;;21.25;11.50;;;;;;;;;;10368575;28;20041;-69
2023/03/13 13:52:51;;;;;;;27.92;13.07;;;;;;;;;;10370303;28;20097;-70
2023/03/13 13:58:03;;;;;;;20.63;13.10;;;;;;;;;;10367192;28;20382;-70
2023/03/13 14:03:15;;;;;;;17.08;12.40;;;;;;;;;;10364933;28;20143;-70
2023/03/13 14:08:18;;;;;;;19.33;11.65;;;;;;;;;;10362333;28;20052;-68
2023/03/13 14:13:20;;;;;;;21.23;12.15;;;;;;;;;;10372238;28;20515;-69
2023/03/13 14:18:29;;;;;;;26.20;12.23;;;;;;;;;;10373674;28;20465;-73
2023/03/13 14:23:33;;;;;;;22.25;13.43;;;;;;;;;;10366936;28;20072;-72
2023/03/13 14:28:33;;;;;;;16.92;11.35;;;;;;;;;;10369580;28;20068;-76
2023/03/13 14:33:34;;;;;;;20.67;11.68;;;;;;;;;;10368116;28;20044;-74
2023/03/13 14:38:35;;;;;;;19.92;10.48;;;;;;;;;;10367166;28;20037;-72
2023/03/13 14:43:39;;;;;;;20.23;11.13;;;;;;;;;;10364113;28;20072;-72
2023/03/13 14:48:40;;;;;;;19.73;10.60;;;;;;;;;;10367630;28;20043;-72
2023/03/13 14:53:51;;;;;;;20.87;13.23;;;;;;;;;;10363736;28;20072;-71
2023/03/13 14:58:51;;;;;;;20.60;12.07;;;;;;;;;;10366273;28;20025;-71
2023/03/13 15:03:52;;;;;;;18.83;11.07;;;;;;;;;;10371429;28;20038;-72
2023/03/13 15:09:27;;;;;;;22.70;10.67;;;;;;;;;;10368349;28;20040;-73
2023/03/13 15:14:30;;;;;;;23.58;11.48;;;;;;;;;;10318457;28;20366;-72
2023/03/13 15:19:31;;;;;;;20.05;12.60;;;;;;;;;;10357642;28;20397;-74
2023/03/13 15:24:31;;;;;;;27.70;12.57;;;;;;;;;;10393701;28;20041;-72
2023/03/13 15:29:31;;;;;;;21.93;12.43;;;;;;;;;;10368861;28;20041;-72
2023/03/13 15:34:32;;;;;;;24.40;12.07;;;;;;;;;;10355879;28;20026;-72
2023/03/13 15:39:33;;;;;;;19.70;12.30;;;;;;;;;;10378074;28;20051;-73
2023/03/13 15:44:34;;;;;;;28.58;13.20;;;;;;;;;;10382377;28;20409;-73
2023/03/13 15:49:34;;;;;;;28.63;10.73;;;;;;;;;;10387129;28;20404;-73
2023/03/13 15:54:34;;;;;;;23.07;12.97;;;;;;;;;;10361077;28;20034;-72
2023/03/13 15:59:35;;;;;;;22.67;11.88;;;;;;;;;;10375564;28;20144;-72
2023/03/13 16:04:36;;;;;;;37.30;12.47;;;;;;;;;;10386320;28;20033;-72
2023/03/13 16:09:37;;;;;;;23.65;11.63;;;;;;;;;;10386777;28;20072;-72
2023/03/13 16:14:37;;;;;;;50.83;20.75;;;;;;;;;;10386578;28;20075;-72
2023/03/13 16:19:37;;;;;;;46.42;21.55;;;;;;;;;;10385976;28;20141;-73
2023/03/13 16:24:38;;;;;;;36.58;18.77;;;;;;;;;;10384313;28;20032;-73
2023/03/13 16:29:38;;;;;;;44.88;20.15;;;;;;;;;;10362490;28;20036;-72
2023/03/13 16:34:38;;;;;;;46.00;20.47;;;;;;;;;;10385986;28;20034;-72
2023/03/13 16:39:39;;;;;;;37.33;18.83;;;;;;;;;;10365387;28;20703;-72
2023/03/13 16:44:39;;;;;;;37.58;15.60;;;;;;;;;;10380245;28;20037;-71
2023/03/13 16:49:39;;;;;;;30.25;15.40;;;;;;;;;;10384268;28;20447;-72
2023/03/13 16:54:40;;;;;;;31.33;16.03;;;;;;;;;;10399325;28;20511;-72
2023/03/13 16:59:40;;;;;;;29.37;15.73;;;;;;;;;;10384622;28;20033;-72
2023/03/13 17:04:41;;;;;;;33.33;17.02;;;;;;;;;;10383821;28;20022;-73
2023/03/13 17:09:41;;;;;;;27.33;14.48;;;;;;;;;;10383053;28;20033;-72
2023/03/13 17:14:41;;;;;;;29.98;17.10;;;;;;;;;;10383951;28;20028;-72
2023/03/13 17:19:42;;;;;;;39.03;18.33;;;;;;;;;;10376584;28;20431;-73
2023/03/13 17:24:42;;;;;;;41.20;17.50;;;;;;;;;;10369035;28;20273;-72
2023/03/13 17:29:43;;;;;;;39.63;18.67;;;;;;;;;;10368215;28;20041;-73
2023/03/13 17:34:43;;;;;;;47.53;18.08;;;;;;;;;;10363940;28;20027;-71
2023/03/13 17:39:44;;;;;;;44.45;20.52;;;;;;;;;;10364494;28;22311;-73
2023/03/13 17:44:45;;;;;;;31.67;17.02;;;;;;;;;;10365331;28;20099;-73
2023/03/13 17:49:45;;;;;;;26.93;15.47;;;;;;;;;;10364491;28;20337;-87
2023/03/13 17:54:46;;;;;;;35.30;16.00;;;;;;;;;;10375971;28;20319;-77
2023/03/13 17:59:48;;;;;;;27.67;14.10;;;;;;;;;;10368876;28;20620;-74
2023/03/13 18:04:48;;;;;;;25.73;14.07;;;;;;;;;;10373517;28;20076;-73
2023/03/13 18:09:48;;;;;;;22.13;12.00;;;;;;;;;;10369179;28;20068;-72
2023/03/13 18:14:49;;;;;;;23.60;10.27;;;;;;;;;;10368664;28;20081;-71
2023/03/13 18:19:49;;;;;;;20.17;10.15;;;;;;;;;;10380966;28;20515;-72
2023/03/13 18:24:50;;;;;;;27.90;10.63;;;;;;;;;;10367806;28;20133;-75
2023/03/13 18:29:50;;;;;;;14.35;7.90;;;;;;;;;;10368670;28;20073;-71
2023/03/13 18:34:50;;;;;;;12.23;7.40;;;;;;;;;;10366283;28;20033;-75
2023/03/13 18:39:51;;;;;;;14.73;6.23;;;;;;;;;;10368443;28;20029;-75
2023/03/13 18:44:51;;;;;;;13.88;6.88;;;;;;;;;;10369022;28;20041;-76
2023/03/13 18:49:52;;;;;;;14.43;6.70;;;;;;;;;;10368543;28;20400;-75
2023/03/13 18:54:52;;;;;;;12.77;6.17;;;;;;;;;;10368169;28;20029;-73
2023/03/13 18:59:52;;;;;;;13.45;6.32;;;;;;;;;;10369189;28;20042;-76
2023/03/13 19:04:53;;;;;;;13.52;6.57;;;;;;;;;;10369717;28;20025;-72
2023/03/13 19:09:53;;;;;;;19.67;7.80;;;;;;;;;;10363457;28;20397;-72
2023/03/13 19:14:54;;;;;;;17.67;8.27;;;;;;;;;;10382059;28;20103;-83
2023/03/13 19:19:57;;;;;;;17.50;8.63;;;;;;;;;;10368543;28;20091;-75
2023/03/13 19:24:57;;;;;;;14.73;8.68;;;;;;;;;;10363267;28;20060;-75
2023/03/13 19:29:58;;;;;;;12.57;6.80;;;;;;;;;;10362470;28;20041;-74
2023/03/13 19:34:58;;;;;;;9.70;4.80;;;;;;;;;;10362950;28;20033;-74
2023/03/13 19:39:58;;;;;;;8.27;4.70;;;;;;;;;;10365539;28;20029;-73
2023/03/13 19:44:59;;;;;;;19.65;6.50;;;;;;;;;;10367101;28;20044;-72
2023/03/13 19:49:59;;;;;;;16.07;8.13;;;;;;;;;;10368260;28;20695;-73
2023/03/13 19:55:02;;;;;;;17.42;8.98;;;;;;;;;;10365420;28;20673;-74
2023/03/13 20:00:04;;;;;;;18.95;9.00;;;;;;;;;;10369844;28;20498;-73
2023/03/13 20:05:04;;;;;;;14.35;7.40;;;;;;;;;;10364031;28;20115;-73
2023/03/13 20:10:05;;;;;;;11.32;7.10;;;;;;;;;;10366277;28;20030;-73
2023/03/13 20:15:05;;;;;;;12.15;6.90;;;;;;;;;;10363981;28;20049;-72
2023/03/13 20:20:07;;;;;;;12.63;5.75;;;;;;;;;;10363953;28;20044;-74
2023/03/13 20:25:07;;;;;;;10.13;5.07;;;;;;;;;;10367030;28;20504;-73
2023/03/13 20:30:08;;;;;;;6.40;4.32;;;;;;;;;;10363893;28;20041;-73
2023/03/13 20:35:12;;;;;;;7.07;4.82;;;;;;;;;;10371928;28;20599;-73
2023/03/13 20:40:13;;;;;;;8.75;4.50;;;;;;;;;;10364239;28;20038;-73
2023/03/13 20:45:13;;;;;;;6.45;4.10;;;;;;;;;;10371940;28;20034;-72
2023/03/13 20:50:13;;;;;;;8.18;3.95;;;;;;;;;;10372205;28;20528;-75
2023/03/13 20:55:14;;;;;;;5.47;3.27;;;;;;;;;;10371367;28;20105;-74
2023/03/13 21:00:14;;;;;;;7.38;4.00;;;;;;;;;;10370820;28;20045;-75
2023/03/13 21:05:15;;;;;;;6.47;3.40;;;;;;;;;;10370174;28;20056;-73
2023/03/13 21:10:17;;;;;;;6.40;4.35;;;;;;;;;;10372304;28;21141;-75
2023/03/13 21:15:17;;;;;;;5.45;4.18;;;;;;;;;;10368468;28;20156;-77
2023/03/13 21:20:17;;;;;;;11.90;4.63;;;;;;;;;;10371591;28;20066;-77
2023/03/13 21:25:18;;;;;;;5.47;4.20;;;;;;;;;;10370172;28;20044;-73
2023/03/13 21:30:19;;;;;;;7.47;4.65;;;;;;;;;;10369348;28;20482;-74
2023/03/13 21:35:19;;;;;;;7.13;4.53;;;;;;;;;;10369694;28;20030;-72
2023/03/13 21:40:20;;;;;;;5.63;4.03;;;;;;;;;;10370655;28;20482;-69
2023/03/13 21:45:20;;;;;;;6.25;4.28;;;;;;;;;;10373354;28;20037;-75
2023/03/13 21:50:21;;;;;;;10.27;6.40;;;;;;;;;;10385231;28;20633;-76
2023/03/13 21:55:21;;;;;;;9.50;4.93;;;;;;;;;;10369433;28;20036;-75
2023/03/13 22:00:22;;;;;;;7.20;4.63;;;;;;;;;;10366888;28;20504;-73
2023/03/13 22:05:22;;;;;;;10.52;4.60;;;;;;;;;;10367176;28;20033;-73
2023/03/13 22:10:22;;;;;;;10.00;4.72;;;;;;;;;;10368355;28;20037;-71
2023/03/13 22:15:23;;;;;;;8.68;5.30;;;;;;;;;;10372228;28;20033;-75
2023/03/13 22:20:23;;;;;;;7.50;5.05;;;;;;;;;;10371378;28;20044;-72
2023/03/13 22:25:23;;;;;;;11.40;5.97;;;;;;;;;;10376030;28;20064;-71
2023/03/13 22:30:24;;;;;;;13.03;6.90;;;;;;;;;;10378163;28;20077;-71
2023/03/13 22:35:24;;;;;;;9.40;5.88;;;;;;;;;;10607511;23;20136;-72
2023/03/13 22:40:24;;;;;;;11.85;5.45;;;;;;;;;;10361346;28;20491;-72
2023/03/13 22:45:25;;;;;;;7.80;5.80;;;;;;;;;;10379054;28;20036;-72
2023/03/13 22:50:26;;;;;;;11.40;6.30;;;;;;;;;;10364730;28;20462;-72
2023/03/13 22:55:27;;;;;;;13.43;6.30;;;;;;;;;;10378047;28;20140;-72
2023/03/13 23:00:27;;;;;;;9.65;5.82;;;;;;;;;;10378285;28;20021;-72
2023/03/13 23:05:27;;;;;;;9.57;6.03;;;;;;;;;;10351094;28;20046;-71
2023/03/13 23:10:29;;;;;;;13.07;7.22;;;;;;;;;;10362598;28;20115;-72
2023/03/13 23:15:29;;;;;;;13.43;7.13;;;;;;;;;;10380634;28;20393;-73
2023/03/13 23:20:29;;;;;;;13.13;7.20;;;;;;;;;;10381082;28;20042;-72
2023/03/13 23:25:30;;;;;;;18.52;7.28;;;;;;;;;;10379752;28;20094;-71
2023/03/13 23:30:30;;;;;;;12.02;6.68;;;;;;;;;;10379837;28;20033;-71
2023/03/13 23:35:30;;;;;;;12.63;7.00;;;;;;;;;;10380151;28;20026;-71
2023/03/13 23:40:31;;;;;;;14.30;7.23;;;;;;;;;;10380045;28;20099;-71
2023/03/13 23:45:33;;;;;;;13.55;7.32;;;;;;;;;;10379452;28;20030;-71
2023/03/13 23:50:34;;;;;;;9.05;6.60;;;;;;;;;;10379762;28;20508;-71
2023/03/13 23:55:35;;;;;;;15.40;7.47;;;;;;;;;;10379795;28;20144;-71
